sensor_id;sensor_type;location;lat;lon;timestamp;P1;durP1;ratioP1;P2;durP2;ratioP2
42384;SDS011;28042;43.986;22.860;2022-11-04T00:02:43;31.33;;;19.52;;
42384;SDS011;28042;43.986;22.860;2022-11-04T00:05:09;36.20;;;19.75;;
42384;SDS011;28042;43.986;22.860;2022-11-04T00:07:34;36.30;;;19.83;;
42384;SDS011;28042;43.986;22.860;2022-11-04T00:10:18;36.88;;;20.75;;
42384;SDS011;28042;43.986;22.860;2022-11-04T00:13:04;30.95;;;19.15;;
42384;SDS011;28042;43.986;22.860;2022-11-04T00:15:29;31.17;;;19.42;;
42384;SDS011;28042;43.986;22.860;2022-11-04T00:18:13;31.85;;;19.52;;
42384;SDS011;28042;43.986;22.860;2022-11-04T00:20:59;27.83;;;18.90;;
42384;SDS011;28042;43.986;22.860;2022-11-04T00:23:43;37.45;;;19.23;;
42384;SDS011;28042;43.986;22.860;2022-11-04T00:26:27;34.80;;;19.38;;
42384;SDS011;28042;43.986;22.860;2022-11-04T00:29:11;28.30;;;19.15;;
42384;SDS011;28042;43.986;22.860;2022-11-04T00:31:36;30.55;;;18.17;;
42384;SDS011;28042;43.986;22.860;2022-11-04T00:34:20;29.40;;;18.75;;
42384;SDS011;28042;43.986;22.860;2022-11-04T00:36:46;31.60;;;18.23;;
42384;SDS011;28042;43.986;22.860;2022-11-04T00:39:11;32.20;;;19.30;;
42384;SDS011;28042;43.986;22.860;2022-11-04T00:41:37;33.38;;;18.17;;
42384;SDS011;28042;43.986;22.860;2022-11-04T00:44:03;34.08;;;18.42;;
42384;SDS011;28042;43.986;22.860;2022-11-04T00:46:31;30.98;;;18.63;;
42384;SDS011;28042;43.986;22.860;2022-11-04T00:48:57;31.95;;;18.10;;
42384;SDS011;28042;43.986;22.860;2022-11-04T00:51:23;32.72;;;18.25;;
42384;SDS011;28042;43.986;22.860;2022-11-04T00:53:49;31.63;;;18.48;;
42384;SDS011;28042;43.986;22.860;2022-11-04T00:56:15;30.98;;;18.80;;
42384;SDS011;28042;43.986;22.860;2022-11-04T00:58:41;32.78;;;18.67;;
42384;SDS011;28042;43.986;22.860;2022-11-04T01:01:09;30.75;;;17.90;;
42384;SDS011;28042;43.986;22.860;2022-11-04T01:03:36;29.98;;;18.02;;
42384;SDS011;28042;43.986;22.860;2022-11-04T01:06:03;29.52;;;17.83;;
42384;SDS011;28042;43.986;22.860;2022-11-04T01:08:29;29.13;;;18.00;;
42384;SDS011;28042;43.986;22.860;2022-11-04T01:10:55;33.13;;;20.17;;
42384;SDS011;28042;43.986;22.860;2022-11-04T01:13:20;31.75;;;20.23;;
42384;SDS011;28042;43.986;22.860;2022-11-04T01:15:46;29.90;;;18.88;;
42384;SDS011;28042;43.986;22.860;2022-11-04T01:18:12;27.13;;;18.23;;
42384;SDS011;28042;43.986;22.860;2022-11-04T01:20:38;30.20;;;18.08;;
42384;SDS011;28042;43.986;22.860;2022-11-04T01:23:03;28.92;;;18.63;;
42384;SDS011;28042;43.986;22.860;2022-11-04T01:25:29;28.67;;;18.90;;
42384;SDS011;28042;43.986;22.860;2022-11-04T01:27:54;29.35;;;18.38;;
42384;SDS011;28042;43.986;22.860;2022-11-04T01:30:21;30.40;;;18.20;;
42384;SDS011;28042;43.986;22.860;2022-11-04T01:32:46;36.50;;;21.92;;
42384;SDS011;28042;43.986;22.860;2022-11-04T01:35:12;34.25;;;19.40;;
42384;SDS011;28042;43.986;22.860;2022-11-04T01:37:37;34.45;;;19.67;;
42384;SDS011;28042;43.986;22.860;2022-11-04T01:40:03;37.72;;;19.25;;
42384;SDS011;28042;43.986;22.860;2022-11-04T01:42:29;29.73;;;19.60;;
42384;SDS011;28042;43.986;22.860;2022-11-04T01:44:55;32.92;;;19.15;;
42384;SDS011;28042;43.986;22.860;2022-11-04T01:47:36;29.20;;;18.15;;
42384;SDS011;28042;43.986;22.860;2022-11-04T01:52:36;35.30;;;18.27;;
42384;SDS011;28042;43.986;22.860;2022-11-04T01:55:05;29.80;;;17.42;;
42384;SDS011;28042;43.986;22.860;2022-11-04T01:57:38;27.70;;;17.77;;
42384;SDS011;28042;43.986;22.860;2022-11-04T02:00:06;34.60;;;19.27;;
42384;SDS011;28042;43.986;22.860;2022-11-04T02:02:35;31.60;;;18.63;;
42384;SDS011;28042;43.986;22.860;2022-11-04T02:05:04;30.98;;;17.40;;
42384;SDS011;28042;43.986;22.860;2022-11-04T02:07:31;28.88;;;19.40;;
42384;SDS011;28042;43.986;22.860;2022-11-04T02:09:58;35.72;;;19.50;;
42384;SDS011;28042;43.986;22.860;2022-11-04T02:12:24;30.20;;;19.25;;
42384;SDS011;28042;43.986;22.860;2022-11-04T02:15:08;29.02;;;18.67;;
42384;SDS011;28042;43.986;22.860;2022-11-04T02:37:41;29.77;;;18.83;;
42384;SDS011;28042;43.986;22.860;2022-11-04T02:43:21;32.80;;;18.55;;
42384;SDS011;28042;43.986;22.860;2022-11-04T02:45:49;28.92;;;19.55;;
42384;SDS011;28042;43.986;22.860;2022-11-04T02:48:37;34.42;;;19.67;;
42384;SDS011;28042;43.986;22.860;2022-11-04T02:51:09;32.30;;;18.83;;
42384;SDS011;28042;43.986;22.860;2022-11-04T02:53:50;33.80;;;19.55;;
42384;SDS011;28042;43.986;22.860;2022-11-04T02:56:24;33.38;;;20.25;;
42384;SDS011;28042;43.986;22.860;2022-11-04T02:59:02;31.48;;;18.67;;
42384;SDS011;28042;43.986;22.860;2022-11-04T03:01:35;27.92;;;18.60;;
42384;SDS011;28042;43.986;22.860;2022-11-04T03:04:10;35.40;;;19.45;;
42384;SDS011;28042;43.986;22.860;2022-11-04T03:06:43;33.72;;;18.70;;
42384;SDS011;28042;43.986;22.860;2022-11-04T03:09:11;39.25;;;19.80;;
42384;SDS011;28042;43.986;22.860;2022-11-04T03:11:39;28.85;;;18.77;;
42384;SDS011;28042;43.986;22.860;2022-11-04T03:14:18;29.08;;;19.05;;
42384;SDS011;28042;43.986;22.860;2022-11-04T03:16:57;31.38;;;20.42;;
42384;SDS011;28042;43.986;22.860;2022-11-04T03:19:30;38.13;;;20.38;;
42384;SDS011;28042;43.986;22.860;2022-11-04T03:22:20;30.92;;;20.73;;
42384;SDS011;28042;43.986;22.860;2022-11-04T03:25:08;31.70;;;19.00;;
42384;SDS011;28042;43.986;22.860;2022-11-04T03:30:15;30.60;;;18.70;;
42384;SDS011;28042;43.986;22.860;2022-11-04T03:35:54;31.02;;;18.58;;
42384;SDS011;28042;43.986;22.860;2022-11-04T03:38:20;31.55;;;19.90;;
42384;SDS011;28042;43.986;22.860;2022-11-04T03:40:47;32.80;;;19.55;;
42384;SDS011;28042;43.986;22.860;2022-11-04T03:43:18;32.30;;;19.40;;
42384;SDS011;28042;43.986;22.860;2022-11-04T03:45:48;34.60;;;20.38;;
42384;SDS011;28042;43.986;22.860;2022-11-04T03:48:14;30.63;;;19.37;;
42384;SDS011;28042;43.986;22.860;2022-11-04T03:50:44;38.90;;;19.48;;
42384;SDS011;28042;43.986;22.860;2022-11-04T03:53:18;33.95;;;19.35;;
42384;SDS011;28042;43.986;22.860;2022-11-04T03:58:57;31.33;;;19.42;;
42384;SDS011;28042;43.986;22.860;2022-11-04T04:06:35;31.67;;;19.83;;
42384;SDS011;28042;43.986;22.860;2022-11-04T04:09:07;31.45;;;19.23;;
42384;SDS011;28042;43.986;22.860;2022-11-04T04:11:47;35.38;;;20.15;;
42384;SDS011;28042;43.986;22.860;2022-11-04T04:19:33;37.55;;;19.75;;
42384;SDS011;28042;43.986;22.860;2022-11-04T04:22:02;38.72;;;19.95;;
42384;SDS011;28042;43.986;22.860;2022-11-04T04:24:35;38.50;;;20.58;;
42384;SDS011;28042;43.986;22.860;2022-11-04T04:27:22;35.17;;;19.08;;
42384;SDS011;28042;43.986;22.860;2022-11-04T04:29:55;36.35;;;21.08;;
42384;SDS011;28042;43.986;22.860;2022-11-04T04:32:23;29.30;;;19.13;;
42384;SDS011;28042;43.986;22.860;2022-11-04T04:34:52;33.92;;;20.63;;
42384;SDS011;28042;43.986;22.860;2022-11-04T04:37:38;34.15;;;20.92;;
42384;SDS011;28042;43.986;22.860;2022-11-04T04:40:08;50.70;;;22.90;;
42384;SDS011;28042;43.986;22.860;2022-11-04T04:42:57;48.38;;;20.92;;
42384;SDS011;28042;43.986;22.860;2022-11-04T04:45:41;41.90;;;21.65;;
42384;SDS011;28042;43.986;22.860;2022-11-04T04:48:12;39.85;;;21.83;;
42384;SDS011;28042;43.986;22.860;2022-11-04T04:50:42;38.63;;;20.33;;
42384;SDS011;28042;43.986;22.860;2022-11-04T04:53:10;37.17;;;19.95;;
42384;SDS011;28042;43.986;22.860;2022-11-04T04:55:36;40.47;;;20.33;;
42384;SDS011;28042;43.986;22.860;2022-11-04T04:58:02;33.92;;;19.88;;
42384;SDS011;28042;43.986;22.860;2022-11-04T05:00:27;35.15;;;20.00;;
42384;SDS011;28042;43.986;22.860;2022-11-04T05:02:53;32.28;;;20.05;;
42384;SDS011;28042;43.986;22.860;2022-11-04T05:05:20;37.20;;;20.80;;
42384;SDS011;28042;43.986;22.860;2022-11-04T05:07:46;39.67;;;21.08;;
42384;SDS011;28042;43.986;22.860;2022-11-04T05:10:12;41.65;;;21.73;;
42384;SDS011;28042;43.986;22.860;2022-11-04T05:12:39;51.97;;;21.67;;
42384;SDS011;28042;43.986;22.860;2022-11-04T05:15:24;46.22;;;22.10;;
42384;SDS011;28042;43.986;22.860;2022-11-04T05:17:57;32.83;;;20.92;;
42384;SDS011;28042;43.986;22.860;2022-11-04T05:20:24;43.58;;;21.48;;
42384;SDS011;28042;43.986;22.860;2022-11-04T05:23:10;59.15;;;23.48;;
42384;SDS011;28042;43.986;22.860;2022-11-04T05:25:39;51.88;;;21.80;;
42384;SDS011;28042;43.986;22.860;2022-11-04T05:28:06;63.58;;;22.88;;
42384;SDS011;28042;43.986;22.860;2022-11-04T05:30:32;67.03;;;25.23;;
42384;SDS011;28042;43.986;22.860;2022-11-04T05:32:57;55.80;;;24.85;;
42384;SDS011;28042;43.986;22.860;2022-11-04T05:35:23;46.28;;;23.77;;
42384;SDS011;28042;43.986;22.860;2022-11-04T05:37:48;34.95;;;21.08;;
42384;SDS011;28042;43.986;22.860;2022-11-04T05:40:14;38.35;;;21.10;;
42384;SDS011;28042;43.986;22.860;2022-11-04T05:42:40;42.78;;;21.10;;
42384;SDS011;28042;43.986;22.860;2022-11-04T05:45:06;35.17;;;20.63;;
42384;SDS011;28042;43.986;22.860;2022-11-04T05:47:32;50.70;;;23.48;;
42384;SDS011;28042;43.986;22.860;2022-11-04T05:49:57;46.08;;;22.55;;
42384;SDS011;28042;43.986;22.860;2022-11-04T05:52:23;47.08;;;21.63;;
42384;SDS011;28042;43.986;22.860;2022-11-04T05:54:48;54.15;;;22.17;;
42384;SDS011;28042;43.986;22.860;2022-11-04T05:57:13;59.92;;;21.50;;
42384;SDS011;28042;43.986;22.860;2022-11-04T05:59:39;59.03;;;24.02;;
42384;SDS011;28042;43.986;22.860;2022-11-04T06:02:05;49.15;;;21.75;;
42384;SDS011;28042;43.986;22.860;2022-11-04T06:04:33;36.28;;;21.98;;
42384;SDS011;28042;43.986;22.860;2022-11-04T06:06:59;41.38;;;21.70;;
42384;SDS011;28042;43.986;22.860;2022-11-04T06:09:45;38.58;;;23.67;;
42384;SDS011;28042;43.986;22.860;2022-11-04T06:12:12;39.80;;;23.42;;
42384;SDS011;28042;43.986;22.860;2022-11-04T06:14:39;51.50;;;24.38;;
42384;SDS011;28042;43.986;22.860;2022-11-04T06:17:06;42.25;;;23.90;;
42384;SDS011;28042;43.986;22.860;2022-11-04T06:19:32;36.00;;;21.48;;
42384;SDS011;28042;43.986;22.860;2022-11-04T06:21:58;41.97;;;23.15;;
42384;SDS011;28042;43.986;22.860;2022-11-04T06:24:24;39.13;;;21.67;;
42384;SDS011;28042;43.986;22.860;2022-11-04T06:26:49;35.92;;;21.30;;
42384;SDS011;28042;43.986;22.860;2022-11-04T06:29:15;33.20;;;20.95;;
42384;SDS011;28042;43.986;22.860;2022-11-04T06:31:40;37.60;;;19.92;;
42384;SDS011;28042;43.986;22.860;2022-11-04T06:34:06;36.40;;;19.80;;
42384;SDS011;28042;43.986;22.860;2022-11-04T06:36:31;32.72;;;19.63;;
42384;SDS011;28042;43.986;22.860;2022-11-04T06:38:58;33.50;;;21.13;;
42384;SDS011;28042;43.986;22.860;2022-11-04T06:41:24;36.50;;;19.45;;
42384;SDS011;28042;43.986;22.860;2022-11-04T06:43:49;41.70;;;21.35;;
42384;SDS011;28042;43.986;22.860;2022-11-04T06:49:11;35.97;;;21.30;;
42384;SDS011;28042;43.986;22.860;2022-11-04T06:51:38;33.40;;;19.58;;
42384;SDS011;28042;43.986;22.860;2022-11-04T06:54:04;35.85;;;20.63;;
42384;SDS011;28042;43.986;22.860;2022-11-04T06:56:30;43.35;;;20.33;;
42384;SDS011;28042;43.986;22.860;2022-11-04T06:58:56;40.22;;;19.90;;
42384;SDS011;28042;43.986;22.860;2022-11-04T07:01:23;32.58;;;20.52;;
42384;SDS011;28042;43.986;22.860;2022-11-04T07:03:54;31.00;;;19.63;;
42384;SDS011;28042;43.986;22.860;2022-11-04T07:06:21;33.55;;;20.13;;
42384;SDS011;28042;43.986;22.860;2022-11-04T07:08:47;34.67;;;20.27;;
42384;SDS011;28042;43.986;22.860;2022-11-04T07:11:15;31.52;;;19.23;;
42384;SDS011;28042;43.986;22.860;2022-11-04T07:13:42;33.75;;;19.38;;
42384;SDS011;28042;43.986;22.860;2022-11-04T07:16:08;31.70;;;19.52;;
42384;SDS011;28042;43.986;22.860;2022-11-04T07:18:33;34.15;;;21.58;;
42384;SDS011;28042;43.986;22.860;2022-11-04T07:21:00;35.85;;;20.20;;
42384;SDS011;28042;43.986;22.860;2022-11-04T07:23:26;178.77;;;43.53;;
42384;SDS011;28042;43.986;22.860;2022-11-04T07:26:12;63.20;;;25.48;;
42384;SDS011;28042;43.986;22.860;2022-11-04T07:28:38;35.22;;;20.23;;
42384;SDS011;28042;43.986;22.860;2022-11-04T07:31:04;44.85;;;21.30;;
42384;SDS011;28042;43.986;22.860;2022-11-04T07:33:32;332.33;;;58.40;;
42384;SDS011;28042;43.986;22.860;2022-11-04T07:35:58;148.52;;;34.47;;
42384;SDS011;28042;43.986;22.860;2022-11-04T07:38:27;32.78;;;18.27;;
42384;SDS011;28042;43.986;22.860;2022-11-04T07:40:52;105.80;;;31.25;;
42384;SDS011;28042;43.986;22.860;2022-11-04T07:43:18;35.28;;;19.83;;
42384;SDS011;28042;43.986;22.860;2022-11-04T07:45:44;33.25;;;19.95;;
42384;SDS011;28042;43.986;22.860;2022-11-04T07:48:09;33.10;;;20.27;;
42384;SDS011;28042;43.986;22.860;2022-11-04T07:50:37;156.75;;;41.30;;
42384;SDS011;28042;43.986;22.860;2022-11-04T07:53:04;131.98;;;34.05;;
42384;SDS011;28042;43.986;22.860;2022-11-04T07:55:30;28.25;;;19.33;;
42384;SDS011;28042;43.986;22.860;2022-11-04T07:57:55;35.03;;;21.08;;
42384;SDS011;28042;43.986;22.860;2022-11-04T08:00:20;36.60;;;20.45;;
42384;SDS011;28042;43.986;22.860;2022-11-04T08:02:46;32.60;;;21.85;;
42384;SDS011;28042;43.986;22.860;2022-11-04T08:05:15;34.00;;;22.15;;
42384;SDS011;28042;43.986;22.860;2022-11-04T08:07:41;34.15;;;21.98;;
42384;SDS011;28042;43.986;22.860;2022-11-04T08:10:08;32.85;;;22.00;;
42384;SDS011;28042;43.986;22.860;2022-11-04T08:12:34;31.38;;;22.17;;
42384;SDS011;28042;43.986;22.860;2022-11-04T08:14:59;46.53;;;22.63;;
42384;SDS011;28042;43.986;22.860;2022-11-04T08:17:25;34.22;;;22.83;;
42384;SDS011;28042;43.986;22.860;2022-11-04T08:19:50;33.28;;;22.23;;
42384;SDS011;28042;43.986;22.860;2022-11-04T08:22:16;37.65;;;22.15;;
42384;SDS011;28042;43.986;22.860;2022-11-04T08:24:41;36.38;;;21.30;;
42384;SDS011;28042;43.986;22.860;2022-11-04T08:27:11;31.73;;;21.63;;
42384;SDS011;28042;43.986;22.860;2022-11-04T08:29:37;35.90;;;22.27;;
42384;SDS011;28042;43.986;22.860;2022-11-04T08:32:03;32.95;;;23.13;;
42384;SDS011;28042;43.986;22.860;2022-11-04T08:34:29;48.92;;;23.45;;
42384;SDS011;28042;43.986;22.860;2022-11-04T08:36:54;47.03;;;23.63;;
42384;SDS011;28042;43.986;22.860;2022-11-04T08:39:21;47.53;;;27.02;;
42384;SDS011;28042;43.986;22.860;2022-11-04T08:41:47;31.67;;;21.60;;
42384;SDS011;28042;43.986;22.860;2022-11-04T08:44:14;32.87;;;23.97;;
42384;SDS011;28042;43.986;22.860;2022-11-04T08:46:42;41.28;;;21.98;;
42384;SDS011;28042;43.986;22.860;2022-11-04T08:49:09;34.10;;;22.23;;
42384;SDS011;28042;43.986;22.860;2022-11-04T08:51:35;36.60;;;23.25;;
42384;SDS011;28042;43.986;22.860;2022-11-04T08:54:02;45.88;;;24.77;;
42384;SDS011;28042;43.986;22.860;2022-11-04T08:56:30;37.70;;;24.17;;
42384;SDS011;28042;43.986;22.860;2022-11-04T08:58:58;29.13;;;22.23;;
42384;SDS011;28042;43.986;22.860;2022-11-04T09:01:24;31.20;;;21.23;;
42384;SDS011;28042;43.986;22.860;2022-11-04T09:04:11;35.63;;;22.90;;
42384;SDS011;28042;43.986;22.860;2022-11-04T09:06:40;31.67;;;21.33;;
42384;SDS011;28042;43.986;22.860;2022-11-04T09:09:08;35.08;;;20.65;;
42384;SDS011;28042;43.986;22.860;2022-11-04T09:11:36;29.08;;;21.55;;
42384;SDS011;28042;43.986;22.860;2022-11-04T09:14:03;29.95;;;21.65;;
42384;SDS011;28042;43.986;22.860;2022-11-04T09:16:31;32.13;;;22.25;;
42384;SDS011;28042;43.986;22.860;2022-11-04T09:18:57;37.03;;;22.90;;
42384;SDS011;28042;43.986;22.860;2022-11-04T09:21:24;34.75;;;22.75;;
42384;SDS011;28042;43.986;22.860;2022-11-04T09:23:50;31.20;;;20.60;;
42384;SDS011;28042;43.986;22.860;2022-11-04T09:26:17;33.65;;;21.98;;
42384;SDS011;28042;43.986;22.860;2022-11-04T09:28:43;31.65;;;21.13;;
42384;SDS011;28042;43.986;22.860;2022-11-04T09:31:16;34.08;;;21.67;;
42384;SDS011;28042;43.986;22.860;2022-11-04T09:33:43;31.23;;;22.75;;
42384;SDS011;28042;43.986;22.860;2022-11-04T09:36:09;34.15;;;24.15;;
42384;SDS011;28042;43.986;22.860;2022-11-04T09:38:36;30.77;;;20.20;;
42384;SDS011;28042;43.986;22.860;2022-11-04T09:46:36;28.83;;;22.95;;
42384;SDS011;28042;43.986;22.860;2022-11-04T09:49:04;32.60;;;22.73;;
42384;SDS011;28042;43.986;22.860;2022-11-04T09:51:32;37.13;;;21.98;;
42384;SDS011;28042;43.986;22.860;2022-11-04T09:53:59;34.25;;;21.77;;
42384;SDS011;28042;43.986;22.860;2022-11-04T09:56:35;27.45;;;20.90;;
42384;SDS011;28042;43.986;22.860;2022-11-04T09:59:03;26.00;;;19.88;;
42384;SDS011;28042;43.986;22.860;2022-11-04T10:04:26;29.38;;;20.25;;
42384;SDS011;28042;43.986;22.860;2022-11-04T10:20:51;25.90;;;19.38;;
42384;SDS011;28042;43.986;22.860;2022-11-04T10:31:26;28.65;;;20.83;;
42384;SDS011;28042;43.986;22.860;2022-11-04T10:33:56;30.33;;;21.67;;
42384;SDS011;28042;43.986;22.860;2022-11-04T10:36:29;31.47;;;20.70;;
42384;SDS011;28042;43.986;22.860;2022-11-04T10:39:18;29.30;;;20.47;;
42384;SDS011;28042;43.986;22.860;2022-11-04T10:41:53;34.15;;;21.70;;
42384;SDS011;28042;43.986;22.860;2022-11-04T10:44:23;34.05;;;21.10;;
42384;SDS011;28042;43.986;22.860;2022-11-04T10:46:53;30.20;;;19.98;;
42384;SDS011;28042;43.986;22.860;2022-11-04T10:52:03;33.08;;;21.17;;
42384;SDS011;28042;43.986;22.860;2022-11-04T10:54:32;30.52;;;20.52;;
42384;SDS011;28042;43.986;22.860;2022-11-04T10:57:04;31.83;;;21.27;;
42384;SDS011;28042;43.986;22.860;2022-11-04T10:59:31;31.05;;;21.40;;
42384;SDS011;28042;43.986;22.860;2022-11-04T11:02:10;31.77;;;21.75;;
42384;SDS011;28042;43.986;22.860;2022-11-04T11:04:36;29.85;;;21.33;;
42384;SDS011;28042;43.986;22.860;2022-11-04T11:07:08;33.13;;;20.45;;
42384;SDS011;28042;43.986;22.860;2022-11-04T11:09:36;37.17;;;20.95;;
42384;SDS011;28042;43.986;22.860;2022-11-04T11:14:39;35.42;;;21.38;;
42384;SDS011;28042;43.986;22.860;2022-11-04T11:19:57;32.90;;;20.13;;
42384;SDS011;28042;43.986;22.860;2022-11-04T11:22:36;33.88;;;21.25;;
42384;SDS011;28042;43.986;22.860;2022-11-04T11:28:01;39.15;;;21.92;;
42384;SDS011;28042;43.986;22.860;2022-11-04T11:30:34;36.33;;;21.73;;
42384;SDS011;28042;43.986;22.860;2022-11-04T11:33:40;30.30;;;21.33;;
42384;SDS011;28042;43.986;22.860;2022-11-04T11:36:17;28.80;;;20.13;;
42384;SDS011;28042;43.986;22.860;2022-11-04T11:41:19;30.48;;;21.02;;
42384;SDS011;28042;43.986;22.860;2022-11-04T11:43:53;33.10;;;21.88;;
42384;SDS011;28042;43.986;22.860;2022-11-04T11:46:38;30.27;;;21.42;;
42384;SDS011;28042;43.986;22.860;2022-11-04T11:49:10;40.50;;;21.75;;
42384;SDS011;28042;43.986;22.860;2022-11-04T11:51:48;35.63;;;21.58;;
42384;SDS011;28042;43.986;22.860;2022-11-04T11:56:41;32.83;;;22.30;;
42384;SDS011;28042;43.986;22.860;2022-11-04T12:04:55;29.85;;;21.23;;
42384;SDS011;28042;43.986;22.860;2022-11-04T12:10:21;30.08;;;21.42;;
42384;SDS011;28042;43.986;22.860;2022-11-04T12:31:50;35.67;;;21.48;;
42384;SDS011;28042;43.986;22.860;2022-11-04T12:37:31;32.22;;;21.80;;
42384;SDS011;28042;43.986;22.860;2022-11-04T12:48:56;49.40;;;27.42;;
42384;SDS011;28042;43.986;22.860;2022-11-04T12:54:04;35.03;;;23.30;;
42384;SDS011;28042;43.986;22.860;2022-11-04T12:56:36;45.13;;;22.23;;
42384;SDS011;28042;43.986;22.860;2022-11-04T13:02:00;33.00;;;21.10;;
42384;SDS011;28042;43.986;22.860;2022-11-04T13:04:41;35.47;;;22.10;;
42384;SDS011;28042;43.986;22.860;2022-11-04T13:07:20;34.33;;;21.38;;
42384;SDS011;28042;43.986;22.860;2022-11-04T13:09:52;125.93;;;26.67;;
42384;SDS011;28042;43.986;22.860;2022-11-04T13:12:23;33.70;;;21.15;;
42384;SDS011;28042;43.986;22.860;2022-11-04T13:14:56;36.88;;;20.98;;
42384;SDS011;28042;43.986;22.860;2022-11-04T13:17:27;34.90;;;21.92;;
42384;SDS011;28042;43.986;22.860;2022-11-04T13:19:59;34.97;;;22.20;;
42384;SDS011;28042;43.986;22.860;2022-11-04T13:22:35;34.85;;;22.35;;
42384;SDS011;28042;43.986;22.860;2022-11-04T13:25:08;34.88;;;20.92;;
42384;SDS011;28042;43.986;22.860;2022-11-04T13:36:26;43.63;;;23.25;;
42384;SDS011;28042;43.986;22.860;2022-11-04T13:39:00;36.00;;;22.58;;
42384;SDS011;28042;43.986;22.860;2022-11-04T13:44:27;37.03;;;22.08;;
42384;SDS011;28042;43.986;22.860;2022-11-04T13:46:59;42.28;;;22.65;;
42384;SDS011;28042;43.986;22.860;2022-11-04T13:49:32;32.00;;;22.80;;
42384;SDS011;28042;43.986;22.860;2022-11-04T13:52:03;45.90;;;24.65;;
42384;SDS011;28042;43.986;22.860;2022-11-04T13:54:39;42.13;;;23.10;;
42384;SDS011;28042;43.986;22.860;2022-11-04T13:57:18;31.35;;;22.92;;
42384;SDS011;28042;43.986;22.860;2022-11-04T14:10:42;31.42;;;21.75;;
42384;SDS011;28042;43.986;22.860;2022-11-04T14:18:26;31.80;;;20.90;;
42384;SDS011;28042;43.986;22.860;2022-11-04T14:21:02;31.15;;;20.05;;
42384;SDS011;28042;43.986;22.860;2022-11-04T14:26:41;30.02;;;21.35;;
42384;SDS011;28042;43.986;22.860;2022-11-04T14:31:45;46.10;;;21.48;;
42384;SDS011;28042;43.986;22.860;2022-11-04T14:34:24;29.67;;;21.35;;
42384;SDS011;28042;43.986;22.860;2022-11-04T14:36:54;44.38;;;21.63;;
42384;SDS011;28042;43.986;22.860;2022-11-04T14:39:23;42.30;;;22.58;;
42384;SDS011;28042;43.986;22.860;2022-11-04T14:41:54;44.60;;;22.42;;
42384;SDS011;28042;43.986;22.860;2022-11-04T14:44:58;32.00;;;21.25;;
42384;SDS011;28042;43.986;22.860;2022-11-04T14:47:25;42.83;;;21.98;;
42384;SDS011;28042;43.986;22.860;2022-11-04T14:55:20;70.03;;;25.90;;
42384;SDS011;28042;43.986;22.860;2022-11-04T14:57:50;57.20;;;24.67;;
42384;SDS011;28042;43.986;22.860;2022-11-04T15:02:46;40.60;;;23.35;;
42384;SDS011;28042;43.986;22.860;2022-11-04T15:05:32;54.53;;;24.00;;
42384;SDS011;28042;43.986;22.860;2022-11-04T15:08:02;55.40;;;25.25;;
42384;SDS011;28042;43.986;22.860;2022-11-04T15:10:56;85.95;;;28.63;;
42384;SDS011;28042;43.986;22.860;2022-11-04T15:13:23;90.30;;;28.50;;
42384;SDS011;28042;43.986;22.860;2022-11-04T15:15:49;85.78;;;31.98;;
42384;SDS011;28042;43.986;22.860;2022-11-04T15:18:18;93.25;;;30.95;;
42384;SDS011;28042;43.986;22.860;2022-11-04T15:20:52;89.50;;;29.35;;
42384;SDS011;28042;43.986;22.860;2022-11-04T15:23:35;68.73;;;28.40;;
42384;SDS011;28042;43.986;22.860;2022-11-04T15:26:05;66.38;;;27.52;;
42384;SDS011;28042;43.986;22.860;2022-11-04T15:28:51;62.35;;;25.83;;
42384;SDS011;28042;43.986;22.860;2022-11-04T15:31:19;71.43;;;28.70;;
42384;SDS011;28042;43.986;22.860;2022-11-04T15:33:50;62.22;;;34.72;;
42384;SDS011;28042;43.986;22.860;2022-11-04T15:36:19;63.22;;;29.23;;
42384;SDS011;28042;43.986;22.860;2022-11-04T15:41:35;80.50;;;29.27;;
42384;SDS011;28042;43.986;22.860;2022-11-04T15:44:27;77.60;;;28.75;;
42384;SDS011;28042;43.986;22.860;2022-11-04T15:46:58;78.85;;;28.95;;
42384;SDS011;28042;43.986;22.860;2022-11-04T15:49:46;70.53;;;26.85;;
42384;SDS011;28042;43.986;22.860;2022-11-04T15:52:24;81.95;;;30.17;;
42384;SDS011;28042;43.986;22.860;2022-11-04T15:54:53;90.40;;;33.58;;
42384;SDS011;28042;43.986;22.860;2022-11-04T16:02:34;88.65;;;41.45;;
42384;SDS011;28042;43.986;22.860;2022-11-04T16:07:43;149.48;;;83.10;;
42384;SDS011;28042;43.986;22.860;2022-11-04T16:10:32;137.15;;;70.18;;
42384;SDS011;28042;43.986;22.860;2022-11-04T16:13:00;152.07;;;65.22;;
42384;SDS011;28042;43.986;22.860;2022-11-04T16:15:32;141.32;;;56.03;;
42384;SDS011;28042;43.986;22.860;2022-11-04T16:18:04;125.22;;;64.00;;
42384;SDS011;28042;43.986;22.860;2022-11-04T16:20:43;143.48;;;61.50;;
42384;SDS011;28042;43.986;22.860;2022-11-04T16:23:16;137.65;;;66.93;;
42384;SDS011;28042;43.986;22.860;2022-11-04T16:25:45;156.18;;;64.85;;
42384;SDS011;28042;43.986;22.860;2022-11-04T16:28:20;142.07;;;62.28;;
42384;SDS011;28042;43.986;22.860;2022-11-04T16:30:56;137.40;;;59.38;;
42384;SDS011;28042;43.986;22.860;2022-11-04T16:33:21;147.32;;;61.20;;
42384;SDS011;28042;43.986;22.860;2022-11-04T16:35:47;135.55;;;67.57;;
42384;SDS011;28042;43.986;22.860;2022-11-04T16:38:12;156.43;;;81.10;;
42384;SDS011;28042;43.986;22.860;2022-11-04T16:40:38;138.77;;;76.72;;
42384;SDS011;28042;43.986;22.860;2022-11-04T16:43:04;150.40;;;75.82;;
42384;SDS011;28042;43.986;22.860;2022-11-04T16:45:30;165.32;;;82.43;;
42384;SDS011;28042;43.986;22.860;2022-11-04T16:48:18;166.65;;;79.43;;
42384;SDS011;28042;43.986;22.860;2022-11-04T16:50:48;166.50;;;84.60;;
42384;SDS011;28042;43.986;22.860;2022-11-04T16:53:14;150.80;;;74.50;;
42384;SDS011;28042;43.986;22.860;2022-11-04T16:55:40;105.13;;;55.85;;
42384;SDS011;28042;43.986;22.860;2022-11-04T16:58:09;108.20;;;64.43;;
42384;SDS011;28042;43.986;22.860;2022-11-04T17:00:41;88.03;;;51.28;;
42384;SDS011;28042;43.986;22.860;2022-11-04T17:03:13;104.60;;;50.85;;
42384;SDS011;28042;43.986;22.860;2022-11-04T17:05:53;86.45;;;47.83;;
42384;SDS011;28042;43.986;22.860;2022-11-04T17:08:24;90.20;;;53.33;;
42384;SDS011;28042;43.986;22.860;2022-11-04T17:10:51;91.95;;;52.90;;
42384;SDS011;28042;43.986;22.860;2022-11-04T17:13:37;82.93;;;49.65;;
42384;SDS011;28042;43.986;22.860;2022-11-04T17:16:06;121.32;;;57.75;;
42384;SDS011;28042;43.986;22.860;2022-11-04T17:18:35;244.35;;;138.30;;
42384;SDS011;28042;43.986;22.860;2022-11-04T17:21:02;199.23;;;115.20;;
42384;SDS011;28042;43.986;22.860;2022-11-04T17:23:30;195.57;;;114.50;;
42384;SDS011;28042;43.986;22.860;2022-11-04T17:25:56;164.07;;;107.78;;
42384;SDS011;28042;43.986;22.860;2022-11-04T17:28:21;142.38;;;80.63;;
42384;SDS011;28042;43.986;22.860;2022-11-04T17:30:47;134.15;;;61.92;;
42384;SDS011;28042;43.986;22.860;2022-11-04T17:33:13;93.18;;;53.92;;
42384;SDS011;28042;43.986;22.860;2022-11-04T17:35:40;84.95;;;49.28;;
42384;SDS011;28042;43.986;22.860;2022-11-04T17:38:08;91.35;;;48.70;;
42384;SDS011;28042;43.986;22.860;2022-11-04T17:40:37;102.15;;;46.22;;